sensor_id;sensor_type;location;lat;lon;timestamp;P1;durP1;ratioP1;P2;durP2;ratioP2
58665;SDS011;44436;52.872;6.520;2022-09-09T09:36:14;10.88;;;2.67;;
58665;SDS011;44436;52.872;6.520;2022-09-09T09:38:51;10.38;;;3.05;;
58665;SDS011;44436;52.872;6.520;2022-09-09T09:41:34;14.68;;;3.15;;
58665;SDS011;44436;52.872;6.520;2022-09-09T09:44:03;9.52;;;2.33;;
58665;SDS011;44436;52.872;6.520;2022-09-09T09:46:30;13.65;;;2.58;;
58665;SDS011;44436;52.872;6.520;2022-09-09T09:49:09;12.48;;;2.60;;
58665;SDS011;44436;52.872;6.520;2022-09-09T09:51:35;12.70;;;2.95;;
58665;SDS011;44436;52.872;6.520;2022-09-09T09:56:40;7.88;;;1.63;;
58665;SDS011;44436;52.872;6.520;2022-09-09T09:59:20;12.68;;;2.20;;
58665;SDS011;44436;52.872;6.520;2022-09-09T10:01:52;9.27;;;2.17;;
58665;SDS011;44436;52.872;6.520;2022-09-09T10:04:19;10.43;;;2.30;;
58665;SDS011;44436;52.872;6.520;2022-09-09T10:06:48;11.48;;;2.50;;
58665;SDS011;44436;52.872;6.520;2022-09-09T10:09:20;6.72;;;2.30;;
58665;SDS011;44436;52.872;6.520;2022-09-09T10:23:07;11.82;;;2.17;;
58665;SDS011;44436;52.872;6.520;2022-09-09T10:33:51;9.35;;;2.40;;
58665;SDS011;44436;52.872;6.520;2022-09-09T10:36:31;8.38;;;2.60;;
58665;SDS011;44436;52.872;6.520;2022-09-09T10:38:58;7.82;;;2.25;;
58665;SDS011;44436;52.872;6.520;2022-09-09T10:54:53;9.60;;;2.22;;
58665;SDS011;44436;52.872;6.520;2022-09-09T10:59:54;8.93;;;1.77;;
58665;SDS011;44436;52.872;6.520;2022-09-09T11:02:29;7.55;;;2.10;;
58665;SDS011;44436;52.872;6.520;2022-09-09T11:07:30;8.23;;;2.50;;
58665;SDS011;44436;52.872;6.520;2022-09-09T11:10:33;7.07;;;1.67;;
58665;SDS011;44436;52.872;6.520;2022-09-09T11:13:00;6.95;;;1.65;;
58665;SDS011;44436;52.872;6.520;2022-09-09T11:15:40;8.05;;;1.40;;
58665;SDS011;44436;52.872;6.520;2022-09-09T11:18:15;10.48;;;2.22;;
58665;SDS011;44436;52.872;6.520;2022-09-09T11:20:48;8.75;;;1.88;;
58665;SDS011;44436;52.872;6.520;2022-09-09T11:23:27;6.13;;;1.83;;
58665;SDS011;44436;52.872;6.520;2022-09-09T11:26:07;8.35;;;1.45;;
58665;SDS011;44436;52.872;6.520;2022-09-09T11:28:51;8.88;;;1.92;;
58665;SDS011;44436;52.872;6.520;2022-09-09T11:31:52;7.47;;;1.83;;
58665;SDS011;44436;52.872;6.520;2022-09-09T11:37:00;6.40;;;1.67;;
58665;SDS011;44436;52.872;6.520;2022-09-09T11:42:33;8.68;;;1.50;;
58665;SDS011;44436;52.872;6.520;2022-09-09T11:45:08;11.77;;;1.70;;
58665;SDS011;44436;52.872;6.520;2022-09-09T11:47:52;6.45;;;1.50;;
58665;SDS011;44436;52.872;6.520;2022-09-09T11:52:45;6.22;;;1.77;;
58665;SDS011;44436;52.872;6.520;2022-09-09T11:55:26;8.00;;;1.98;;
58665;SDS011;44436;52.872;6.520;2022-09-09T11:58:02;5.80;;;1.38;;
58665;SDS011;44436;52.872;6.520;2022-09-09T12:00:42;11.25;;;2.13;;
58665;SDS011;44436;52.872;6.520;2022-09-09T12:05:59;9.75;;;1.85;;
58665;SDS011;44436;52.872;6.520;2022-09-09T12:08:43;9.32;;;1.80;;
58665;SDS011;44436;52.872;6.520;2022-09-09T12:11:11;12.07;;;1.80;;
58665;SDS011;44436;52.872;6.520;2022-09-09T12:13:53;9.52;;;2.20;;
58665;SDS011;44436;52.872;6.520;2022-09-09T12:16:29;8.32;;;1.90;;
58665;SDS011;44436;52.872;6.520;2022-09-09T12:21:38;7.25;;;2.00;;
58665;SDS011;44436;52.872;6.520;2022-09-09T12:27:01;9.00;;;1.58;;
58665;SDS011;44436;52.872;6.520;2022-09-09T12:32:16;7.88;;;1.35;;
58665;SDS011;44436;52.872;6.520;2022-09-09T12:34:59;8.50;;;2.00;;
58665;SDS011;44436;52.872;6.520;2022-09-09T12:37:41;6.40;;;1.63;;
58665;SDS011;44436;52.872;6.520;2022-09-09T12:42:49;7.88;;;1.48;;
58665;SDS011;44436;52.872;6.520;2022-09-09T12:48:03;4.82;;;1.25;;
58665;SDS011;44436;52.872;6.520;2022-09-09T12:50:29;7.30;;;1.63;;
58665;SDS011;44436;52.872;6.520;2022-09-09T12:53:11;10.38;;;2.30;;
58665;SDS011;44436;52.872;6.520;2022-09-09T12:55:49;7.90;;;1.70;;
58665;SDS011;44436;52.872;6.520;2022-09-09T12:58:17;7.00;;;1.40;;
58665;SDS011;44436;52.872;6.520;2022-09-09T13:00:48;7.47;;;1.50;;
58665;SDS011;44436;52.872;6.520;2022-09-09T13:03:17;6.68;;;1.63;;
58665;SDS011;44436;52.872;6.520;2022-09-09T13:05:46;3.83;;;1.08;;
58665;SDS011;44436;52.872;6.520;2022-09-09T13:08:12;4.85;;;1.10;;
58665;SDS011;44436;52.872;6.520;2022-09-09T13:13:14;6.57;;;1.35;;
58665;SDS011;44436;52.872;6.520;2022-09-09T13:15:48;6.30;;;1.85;;
58665;SDS011;44436;52.872;6.520;2022-09-09T13:18:19;6.80;;;1.98;;
58665;SDS011;44436;52.872;6.520;2022-09-09T13:20:48;5.50;;;1.73;;
58665;SDS011;44436;52.872;6.520;2022-09-09T13:23:16;6.68;;;1.20;;
58665;SDS011;44436;52.872;6.520;2022-09-09T13:25:58;6.35;;;1.23;;
58665;SDS011;44436;52.872;6.520;2022-09-09T13:28:27;5.22;;;1.27;;
58665;SDS011;44436;52.872;6.520;2022-09-09T13:30:59;4.03;;;1.10;;
58665;SDS011;44436;52.872;6.520;2022-09-09T13:33:30;3.75;;;1.20;;
58665;SDS011;44436;52.872;6.520;2022-09-09T13:38:24;8.18;;;1.40;;
58665;SDS011;44436;52.872;6.520;2022-09-09T13:40:54;5.45;;;1.55;;
58665;SDS011;44436;52.872;6.520;2022-09-09T13:43:24;4.10;;;1.30;;
58665;SDS011;44436;52.872;6.520;2022-09-09T13:45:55;5.68;;;1.08;;
58665;SDS011;44436;52.872;6.520;2022-09-09T13:48:23;5.85;;;0.85;;
58665;SDS011;44436;52.872;6.520;2022-09-09T13:50:55;2.67;;;0.60;;
58665;SDS011;44436;52.872;6.520;2022-09-09T13:55:47;3.88;;;0.80;;
58665;SDS011;44436;52.872;6.520;2022-09-09T13:58:16;3.13;;;0.60;;
58665;SDS011;44436;52.872;6.520;2022-09-09T14:00:46;2.45;;;0.73;;
58665;SDS011;44436;52.872;6.520;2022-09-09T14:03:12;4.35;;;0.88;;
58665;SDS011;44436;52.872;6.520;2022-09-09T14:05:38;4.72;;;1.05;;
58665;SDS011;44436;52.872;6.520;2022-09-09T14:08:04;4.80;;;1.40;;
58665;SDS011;44436;52.872;6.520;2022-09-09T14:10:31;6.47;;;1.65;;
58665;SDS011;44436;52.872;6.520;2022-09-09T14:12:57;5.03;;;1.60;;
58665;SDS011;44436;52.872;6.520;2022-09-09T14:15:23;5.50;;;1.15;;
58665;SDS011;44436;52.872;6.520;2022-09-09T14:17:48;5.82;;;1.20;;
58665;SDS011;44436;52.872;6.520;2022-09-09T14:20:14;6.78;;;1.30;;
58665;SDS011;44436;52.872;6.520;2022-09-09T14:22:40;2.33;;;1.00;;
58665;SDS011;44436;52.872;6.520;2022-09-09T14:25:07;2.40;;;0.73;;
58665;SDS011;44436;52.872;6.520;2022-09-09T14:27:33;2.22;;;0.60;;
58665;SDS011;44436;52.872;6.520;2022-09-09T14:29:58;2.22;;;0.50;;
58665;SDS011;44436;52.872;6.520;2022-09-09T14:32:25;3.20;;;0.55;;
58665;SDS011;44436;52.872;6.520;2022-09-09T14:34:51;3.85;;;0.90;;
58665;SDS011;44436;52.872;6.520;2022-09-09T14:37:17;3.40;;;1.00;;
58665;SDS011;44436;52.872;6.520;2022-09-09T14:39:45;2.03;;;0.60;;
58665;SDS011;44436;52.872;6.520;2022-09-09T14:42:12;2.78;;;0.90;;
58665;SDS011;44436;52.872;6.520;2022-09-09T14:44:38;2.72;;;0.82;;
58665;SDS011;44436;52.872;6.520;2022-09-09T14:47:07;3.72;;;0.80;;
58665;SDS011;44436;52.872;6.520;2022-09-09T14:49:33;2.58;;;0.80;;
58665;SDS011;44436;52.872;6.520;2022-09-09T14:51:59;3.25;;;0.77;;
58665;SDS011;44436;52.872;6.520;2022-09-09T14:54:26;3.78;;;0.90;;
58665;SDS011;44436;52.872;6.520;2022-09-09T14:56:51;4.95;;;1.02;;
58665;SDS011;44436;52.872;6.520;2022-09-09T14:59:17;4.43;;;0.90;;
58665;SDS011;44436;52.872;6.520;2022-09-09T15:01:42;3.40;;;1.00;;
58665;SDS011;44436;52.872;6.520;2022-09-09T15:04:10;2.90;;;0.85;;
58665;SDS011;44436;52.872;6.520;2022-09-09T15:06:39;6.43;;;1.48;;
58665;SDS011;44436;52.872;6.520;2022-09-09T15:09:06;3.85;;;0.70;;
58665;SDS011;44436;52.872;6.520;2022-09-09T15:11:36;3.95;;;0.90;;
58665;SDS011;44436;52.872;6.520;2022-09-09T15:14:03;5.28;;;1.10;;
58665;SDS011;44436;52.872;6.520;2022-09-09T15:16:29;3.53;;;0.88;;
58665;SDS011;44436;52.872;6.520;2022-09-09T15:18:57;5.40;;;1.08;;
58665;SDS011;44436;52.872;6.520;2022-09-09T15:21:28;2.47;;;0.85;;
58665;SDS011;44436;52.872;6.520;2022-09-09T15:23:55;5.20;;;1.15;;
58665;SDS011;44436;52.872;6.520;2022-09-09T15:26:22;3.03;;;0.82;;
58665;SDS011;44436;52.872;6.520;2022-09-09T15:28:48;2.63;;;0.90;;
58665;SDS011;44436;52.872;6.520;2022-09-09T15:31:18;3.28;;;0.73;;
58665;SDS011;44436;52.872;6.520;2022-09-09T15:33:49;3.47;;;0.98;;
58665;SDS011;44436;52.872;6.520;2022-09-09T15:36:18;4.35;;;0.90;;
58665;SDS011;44436;52.872;6.520;2022-09-09T15:38:44;2.97;;;1.00;;
58665;SDS011;44436;52.872;6.520;2022-09-09T15:41:10;4.60;;;1.00;;
58665;SDS011;44436;52.872;6.520;2022-09-09T15:43:37;4.03;;;1.00;;
58665;SDS011;44436;52.872;6.520;2022-09-09T15:46:09;4.80;;;0.95;;
58665;SDS011;44436;52.872;6.520;2022-09-09T15:48:49;3.47;;;0.82;;
58665;SDS011;44436;52.872;6.520;2022-09-09T15:51:15;4.03;;;0.88;;
58665;SDS011;44436;52.872;6.520;2022-09-09T15:53:41;3.53;;;0.88;;
58665;SDS011;44436;52.872;6.520;2022-09-09T15:56:08;3.75;;;1.10;;
58665;SDS011;44436;52.872;6.520;2022-09-09T15:58:34;3.75;;;1.20;;
58665;SDS011;44436;52.872;6.520;2022-09-09T16:01:02;3.13;;;0.93;;
58665;SDS011;44436;52.872;6.520;2022-09-09T16:03:29;4.88;;;1.00;;
58665;SDS011;44436;52.872;6.520;2022-09-09T16:06:02;1.15;;;0.50;;
58665;SDS011;44436;52.872;6.520;2022-09-09T16:08:32;3.97;;;0.82;;
58665;SDS011;44436;52.872;6.520;2022-09-09T16:11:10;3.85;;;0.98;;
58665;SDS011;44436;52.872;6.520;2022-09-09T16:13:41;2.08;;;0.90;;
58665;SDS011;44436;52.872;6.520;2022-09-09T16:16:09;6.28;;;1.35;;
58665;SDS011;44436;52.872;6.520;2022-09-09T16:18:39;4.07;;;1.33;;
58665;SDS011;44436;52.872;6.520;2022-09-09T16:21:06;3.67;;;1.05;;
58665;SDS011;44436;52.872;6.520;2022-09-09T16:23:33;6.60;;;1.60;;
58665;SDS011;44436;52.872;6.520;2022-09-09T16:26:02;4.18;;;1.17;;
58665;SDS011;44436;52.872;6.520;2022-09-09T16:28:28;3.38;;;1.08;;
58665;SDS011;44436;52.872;6.520;2022-09-09T16:30:54;3.22;;;1.23;;
58665;SDS011;44436;52.872;6.520;2022-09-09T16:33:20;2.17;;;0.93;;
58665;SDS011;44436;52.872;6.520;2022-09-09T16:35:46;4.38;;;1.48;;
58665;SDS011;44436;52.872;6.520;2022-09-09T16:38:11;4.97;;;1.10;;
58665;SDS011;44436;52.872;6.520;2022-09-09T16:40:37;2.80;;;1.00;;
58665;SDS011;44436;52.872;6.520;2022-09-09T16:43:06;3.22;;;1.13;;
58665;SDS011;44436;52.872;6.520;2022-09-09T16:45:32;3.45;;;1.33;;
58665;SDS011;44436;52.872;6.520;2022-09-09T16:47:58;6.38;;;1.27;;
58665;SDS011;44436;52.872;6.520;2022-09-09T16:50:25;3.10;;;1.13;;
58665;SDS011;44436;52.872;6.520;2022-09-09T16:52:51;6.38;;;1.27;;
58665;SDS011;44436;52.872;6.520;2022-09-09T16:55:18;2.95;;;1.15;;
58665;SDS011;44436;52.872;6.520;2022-09-09T16:57:45;3.38;;;1.40;;
58665;SDS011;44436;52.872;6.520;2022-09-09T17:00:14;4.38;;;1.58;;
58665;SDS011;44436;52.872;6.520;2022-09-09T17:02:41;7.72;;;1.75;;
58665;SDS011;44436;52.872;6.520;2022-09-09T17:05:08;5.05;;;1.80;;
58665;SDS011;44436;52.872;6.520;2022-09-09T17:07:34;4.97;;;1.50;;
58665;SDS011;44436;52.872;6.520;2022-09-09T17:10:00;3.17;;;1.35;;
58665;SDS011;44436;52.872;6.520;2022-09-09T17:12:27;6.22;;;1.90;;
58665;SDS011;44436;52.872;6.520;2022-09-09T17:14:52;5.43;;;1.77;;
58665;SDS011;44436;52.872;6.520;2022-09-09T17:17:20;7.57;;;2.00;;
58665;SDS011;44436;52.872;6.520;2022-09-09T17:19:46;3.33;;;1.40;;
58665;SDS011;44436;52.872;6.520;2022-09-09T17:22:12;8.70;;;1.52;;
58665;SDS011;44436;52.872;6.520;2022-09-09T17:24:37;7.47;;;1.70;;
58665;SDS011;44436;52.872;6.520;2022-09-09T17:27:05;4.00;;;1.40;;
58665;SDS011;44436;52.872;6.520;2022-09-09T17:29:31;4.85;;;1.58;;
58665;SDS011;44436;52.872;6.520;2022-09-09T17:31:57;6.70;;;1.77;;
58665;SDS011;44436;52.872;6.520;2022-09-09T17:34:23;5.85;;;1.58;;
58665;SDS011;44436;52.872;6.520;2022-09-09T17:36:50;5.82;;;1.60;;
58665;SDS011;44436;52.872;6.520;2022-09-09T17:39:15;3.83;;;1.33;;
58665;SDS011;44436;52.872;6.520;2022-09-09T17:41:41;5.38;;;1.60;;
58665;SDS011;44436;52.872;6.520;2022-09-09T17:44:07;4.68;;;1.40;;
58665;SDS011;44436;52.872;6.520;2022-09-09T17:46:35;8.48;;;1.60;;
58665;SDS011;44436;52.872;6.520;2022-09-09T17:49:04;4.43;;;1.35;;
58665;SDS011;44436;52.872;6.520;2022-09-09T17:51:32;4.53;;;1.42;;
58665;SDS011;44436;52.872;6.520;2022-09-09T17:53:59;4.07;;;1.40;;
58665;SDS011;44436;52.872;6.520;2022-09-09T17:56:27;5.72;;;1.55;;
58665;SDS011;44436;52.872;6.520;2022-09-09T17:58:59;5.90;;;1.33;;
58665;SDS011;44436;52.872;6.520;2022-09-09T18:01:27;6.53;;;2.03;;
58665;SDS011;44436;52.872;6.520;2022-09-09T18:03:55;3.53;;;1.23;;
58665;SDS011;44436;52.872;6.520;2022-09-09T18:06:26;4.90;;;1.33;;
58665;SDS011;44436;52.872;6.520;2022-09-09T18:08:59;4.78;;;1.30;;
58665;SDS011;44436;52.872;6.520;2022-09-09T18:11:28;4.53;;;1.17;;
58665;SDS011;44436;52.872;6.520;2022-09-09T18:13:56;4.63;;;1.40;;
58665;SDS011;44436;52.872;6.520;2022-09-09T18:16:25;5.22;;;1.50;;
58665;SDS011;44436;52.872;6.520;2022-09-09T18:18:53;6.95;;;1.73;;
58665;SDS011;44436;52.872;6.520;2022-09-09T18:21:20;3.90;;;1.48;;
58665;SDS011;44436;52.872;6.520;2022-09-09T18:23:47;5.32;;;1.80;;
58665;SDS011;44436;52.872;6.520;2022-09-09T18:26:20;3.47;;;1.45;;
58665;SDS011;44436;52.872;6.520;2022-09-09T18:28:52;3.60;;;1.67;;
58665;SDS011;44436;52.872;6.520;2022-09-09T18:31:20;4.30;;;1.45;;
58665;SDS011;44436;52.872;6.520;2022-09-09T18:33:47;3.92;;;1.40;;
58665;SDS011;44436;52.872;6.520;2022-09-09T18:39:11;4.53;;;1.98;;
58665;SDS011;44436;52.872;6.520;2022-09-09T18:41:40;7.50;;;1.63;;
58665;SDS011;44436;52.872;6.520;2022-09-09T18:44:12;4.05;;;1.60;;
58665;SDS011;44436;52.872;6.520;2022-09-09T18:46:43;3.75;;;1.58;;
58665;SDS011;44436;52.872;6.520;2022-09-09T18:49:09;8.02;;;1.63;;
58665;SDS011;44436;52.872;6.520;2022-09-09T18:51:36;4.90;;;1.77;;
58665;SDS011;44436;52.872;6.520;2022-09-09T18:54:05;8.93;;;2.35;;
58665;SDS011;44436;52.872;6.520;2022-09-09T18:56:33;5.30;;;1.40;;
58665;SDS011;44436;52.872;6.520;2022-09-09T18:59:01;4.30;;;2.00;;
58665;SDS011;44436;52.872;6.520;2022-09-09T19:01:29;8.10;;;1.83;;
58665;SDS011;44436;52.872;6.520;2022-09-09T19:03:55;6.28;;;2.08;;
58665;SDS011;44436;52.872;6.520;2022-09-09T19:06:22;3.83;;;1.65;;
58665;SDS011;44436;52.872;6.520;2022-09-09T19:08:50;5.30;;;2.08;;
58665;SDS011;44436;52.872;6.520;2022-09-09T19:11:17;8.32;;;2.10;;
58665;SDS011;44436;52.872;6.520;2022-09-09T19:14:19;6.13;;;2.45;;
58665;SDS011;44436;52.872;6.520;2022-09-09T19:16:39;6.47;;;2.23;;
58665;SDS011;44436;52.872;6.520;2022-09-09T19:19:07;6.88;;;2.72;;
58665;SDS011;44436;52.872;6.520;2022-09-09T19:21:38;5.60;;;2.25;;
58665;SDS011;44436;52.872;6.520;2022-09-09T19:24:05;8.23;;;2.55;;
58665;SDS011;44436;52.872;6.520;2022-09-09T19:26:52;7.30;;;2.90;;
58665;SDS011;44436;52.872;6.520;2022-09-09T19:29:22;5.60;;;2.60;;
58665;SDS011;44436;52.872;6.520;2022-09-09T19:31:50;5.65;;;2.38;;
58665;SDS011;44436;52.872;6.520;2022-09-09T19:34:17;6.75;;;2.45;;
58665;SDS011;44436;52.872;6.520;2022-09-09T19:36:44;7.40;;;2.95;;
58665;SDS011;44436;52.872;6.520;2022-09-09T19:39:11;7.88;;;2.40;;
58665;SDS011;44436;52.872;6.520;2022-09-09T19:41:37;8.73;;;2.95;;
58665;SDS011;44436;52.872;6.520;2022-09-09T19:44:04;5.95;;;2.75;;
58665;SDS011;44436;52.872;6.520;2022-09-09T19:46:33;7.38;;;2.63;;
58665;SDS011;44436;52.872;6.520;2022-09-09T19:49:00;6.00;;;2.70;;
58665;SDS011;44436;52.872;6.520;2022-09-09T19:51:27;4.22;;;2.50;;
58665;SDS011;44436;52.872;6.520;2022-09-09T19:53:56;7.28;;;2.50;;
58665;SDS011;44436;52.872;6.520;2022-09-09T19:56:25;4.57;;;2.60;;
58665;SDS011;44436;52.872;6.520;2022-09-09T19:58:52;4.53;;;2.33;;
58665;SDS011;44436;52.872;6.520;2022-09-09T20:01:19;6.05;;;2.42;;
58665;SDS011;44436;52.872;6.520;2022-09-09T20:03:47;4.35;;;2.70;;
58665;SDS011;44436;52.872;6.520;2022-09-09T20:06:16;4.93;;;2.85;;
58665;SDS011;44436;52.872;6.520;2022-09-09T20:08:44;8.70;;;3.03;;
58665;SDS011;44436;52.872;6.520;2022-09-09T20:11:12;4.97;;;2.63;;
58665;SDS011;44436;52.872;6.520;2022-09-09T20:13:38;6.38;;;3.00;;
58665;SDS011;44436;52.872;6.520;2022-09-09T20:18:32;11.02;;;3.15;;
58665;SDS011;44436;52.872;6.520;2022-09-09T20:21:00;5.68;;;3.00;;
58665;SDS011;44436;52.872;6.520;2022-09-09T20:23:29;5.43;;;2.78;;
58665;SDS011;44436;52.872;6.520;2022-09-09T20:25:59;6.43;;;3.20;;
58665;SDS011;44436;52.872;6.520;2022-09-09T20:28:27;7.93;;;3.10;;
58665;SDS011;44436;52.872;6.520;2022-09-09T20:30:53;6.28;;;3.10;;
58665;SDS011;44436;52.872;6.520;2022-09-09T20:33:20;6.88;;;3.20;;
58665;SDS011;44436;52.872;6.520;2022-09-09T20:35:46;6.88;;;2.80;;
58665;SDS011;44436;52.872;6.520;2022-09-09T20:38:12;8.35;;;3.03;;
58665;SDS011;44436;52.872;6.520;2022-09-09T20:40:38;4.40;;;2.55;;
58665;SDS011;44436;52.872;6.520;2022-09-09T20:43:06;6.60;;;2.40;;
58665;SDS011;44436;52.872;6.520;2022-09-09T20:45:36;7.30;;;3.35;;
58665;SDS011;44436;52.872;6.520;2022-09-09T20:48:05;5.15;;;2.70;;
58665;SDS011;44436;52.872;6.520;2022-09-09T20:50:33;8.32;;;3.08;;
58665;SDS011;44436;52.872;6.520;2022-09-09T20:53:03;9.23;;;2.72;;
58665;SDS011;44436;52.872;6.520;2022-09-09T20:55:29;7.28;;;2.45;;
58665;SDS011;44436;52.872;6.520;2022-09-09T20:57:55;9.60;;;3.10;;
58665;SDS011;44436;52.872;6.520;2022-09-09T21:00:22;5.28;;;2.80;;
58665;SDS011;44436;52.872;6.520;2022-09-09T21:02:48;4.22;;;2.55;;
58665;SDS011;44436;52.872;6.520;2022-09-09T21:05:14;7.32;;;3.40;;
58665;SDS011;44436;52.872;6.520;2022-09-09T21:07:40;7.22;;;3.17;;
58665;SDS011;44436;52.872;6.520;2022-09-09T21:10:06;7.53;;;3.00;;
58665;SDS011;44436;52.872;6.520;2022-09-09T21:12:32;7.63;;;3.45;;
58665;SDS011;44436;52.872;6.520;2022-09-09T21:14:58;7.10;;;3.55;;
58665;SDS011;44436;52.872;6.520;2022-09-09T21:17:24;6.03;;;3.78;;
58665;SDS011;44436;52.872;6.520;2022-09-09T21:19:50;5.80;;;3.60;;
58665;SDS011;44436;52.872;6.520;2022-09-09T21:22:16;6.78;;;4.07;;
58665;SDS011;44436;52.872;6.520;2022-09-09T21:24:42;7.97;;;4.07;;
58665;SDS011;44436;52.872;6.520;2022-09-09T21:27:08;7.40;;;4.30;;
58665;SDS011;44436;52.872;6.520;2022-09-09T21:29:33;6.60;;;4.60;;
58665;SDS011;44436;52.872;6.520;2022-09-09T21:31:59;10.90;;;3.92;;
58665;SDS011;44436;52.872;6.520;2022-09-09T21:34:25;8.27;;;4.55;;
58665;SDS011;44436;52.872;6.520;2022-09-09T21:36:51;6.95;;;4.30;;
58665;SDS011;44436;52.872;6.520;2022-09-09T21:39:17;7.93;;;4.03;;
58665;SDS011;44436;52.872;6.520;2022-09-09T21:41:43;10.75;;;4.20;;
58665;SDS011;44436;52.872;6.520;2022-09-09T21:44:08;8.98;;;4.43;;
58665;SDS011;44436;52.872;6.520;2022-09-09T21:46:38;7.18;;;4.43;;
58665;SDS011;44436;52.872;6.520;2022-09-09T21:49:07;9.13;;;5.07;;
58665;SDS011;44436;52.872;6.520;2022-09-09T21:51:33;8.60;;;4.70;;
58665;SDS011;44436;52.872;6.520;2022-09-09T21:53:59;7.30;;;4.50;;
58665;SDS011;44436;52.872;6.520;2022-09-09T21:56:25;8.70;;;4.85;;
58665;SDS011;44436;52.872;6.520;2022-09-09T21:58:55;9.57;;;5.28;;
58665;SDS011;44436;52.872;6.520;2022-09-09T22:01:21;7.47;;;4.75;;
58665;SDS011;44436;52.872;6.520;2022-09-09T22:03:49;6.68;;;4.60;;
58665;SDS011;44436;52.872;6.520;2022-09-09T22:06:15;9.20;;;5.25;;
58665;SDS011;44436;52.872;6.520;2022-09-09T22:08:42;9.70;;;5.13;;
58665;SDS011;44436;52.872;6.520;2022-09-09T22:11:10;6.65;;;4.25;;
58665;SDS011;44436;52.872;6.520;2022-09-09T22:13:38;7.97;;;5.18;;
58665;SDS011;44436;52.872;6.520;2022-09-09T22:16:06;9.68;;;5.55;;
58665;SDS011;44436;52.872;6.520;2022-09-09T22:18:33;7.40;;;4.80;;
58665;SDS011;44436;52.872;6.520;2022-09-09T22:21:03;8.02;;;5.50;;
58665;SDS011;44436;52.872;6.520;2022-09-09T22:23:33;8.43;;;4.88;;
58665;SDS011;44436;52.872;6.520;2022-09-09T22:26:00;6.35;;;5.00;;
58665;SDS011;44436;52.872;6.520;2022-09-09T22:28:26;10.93;;;5.45;;
58665;SDS011;44436;52.872;6.520;2022-09-09T22:30:51;7.50;;;5.32;;
58665;SDS011;44436;52.872;6.520;2022-09-09T22:33:17;10.20;;;5.60;;
58665;SDS011;44436;52.872;6.520;2022-09-09T22:35:43;9.75;;;5.40;;
58665;SDS011;44436;52.872;6.520;2022-09-09T22:38:09;6.97;;;5.47;;
58665;SDS011;44436;52.872;6.520;2022-09-09T22:40:36;5.78;;;4.93;;
58665;SDS011;44436;52.872;6.520;2022-09-09T22:43:04;9.85;;;5.50;;
58665;SDS011;44436;52.872;6.520;2022-09-09T22:45:32;5.85;;;5.07;;
58665;SDS011;44436;52.872;6.520;2022-09-09T22:47:58;7.85;;;5.57;;
58665;SDS011;44436;52.872;6.520;2022-09-09T22:50:25;9.57;;;5.43;;
58665;SDS011;44436;52.872;6.520;2022-09-09T22:52:51;11.70;;;5.57;;
58665;SDS011;44436;52.872;6.520;2022-09-09T22:55:17;6.45;;;5.85;;
58665;SDS011;44436;52.872;6.520;2022-09-09T22:57:43;10.52;;;5.50;;
58665;SDS011;44436;52.872;6.520;2022-09-09T23:00:09;7.00;;;5.45;;
58665;SDS011;44436;52.872;6.520;2022-09-09T23:02:37;9.27;;;5.85;;
58665;SDS011;44436;52.872;6.520;2022-09-09T23:05:03;9.02;;;5.75;;
58665;SDS011;44436;52.872;6.520;2022-09-09T23:07:33;10.30;;;5.68;;
58665;SDS011;44436;52.872;6.520;2022-09-09T23:09:59;8.82;;;5.07;;
58665;SDS011;44436;52.872;6.520;2022-09-09T23:12:25;11.40;;;6.20;;
58665;SDS011;44436;52.872;6.520;2022-09-09T23:14:51;9.45;;;5.90;;
58665;SDS011;44436;52.872;6.520;2022-09-09T23:17:19;9.30;;;5.82;;
58665;SDS011;44436;52.872;6.520;2022-09-09T23:19:45;9.52;;;6.20;;
58665;SDS011;44436;52.872;6.520;2022-09-09T23:22:11;8.88;;;5.53;;
58665;SDS011;44436;52.872;6.520;2022-09-09T23:24:39;8.82;;;6.28;;
58665;SDS011;44436;52.872;6.520;2022-09-09T23:27:05;10.00;;;6.35;;
58665;SDS011;44436;52.872;6.520;2022-09-09T23:29:31;9.32;;;6.50;;
58665;SDS011;44436;52.872;6.520;2022-09-09T23:31:56;7.70;;;5.78;;
58665;SDS011;44436;52.872;6.520;2022-09-09T23:34:22;10.57;;;6.88;;
58665;SDS011;44436;52.872;6.520;2022-09-09T23:36:47;7.90;;;6.45;;
58665;SDS011;44436;52.872;6.520;2022-09-09T23:39:13;10.88;;;6.30;;
58665;SDS011;44436;52.872;6.520;2022-09-09T23:41:39;9.95;;;6.75;;
58665;SDS011;44436;52.872;6.520;2022-09-09T23:44:05;14.05;;;6.80;;
58665;SDS011;44436;52.872;6.520;2022-09-09T23:46:31;10.65;;;6.75;;
58665;SDS011;44436;52.872;6.520;2022-09-09T23:48:58;9.82;;;7.60;;
58665;SDS011;44436;52.872;6.520;2022-09-09T23:51:26;8.52;;;7.10;;
58665;SDS011;44436;52.872;6.520;2022-09-09T23:53:55;9.80;;;6.70;;
58665;SDS011;44436;52.872;6.520;2022-09-09T23:56:22;13.02;;;8.05;;
58665;SDS011;44436;52.872;6.520;2022-09-09T23:58:51;8.80;;;7.50;;
